Time;durP1;ratioP1;P1;durP2;ratioP2;P2;SDS_P1;SDS_P2;PMS_P1;PMS_P2;Temp;Humidity;BMP_temperature;BMP_pressure;BME280_temperature;BME280_humidity;BME280_pressure;Samples;Min_cycle;Max_cycle;Signal;HPM_P1;HPM_P2
2022/12/10 00:01:56;;;;;;;73.13;26.45;;;;;;;4.05;100.00;100685.66;5013500;28;20577;-53
2022/12/10 00:04:21;;;;;;;68.63;23.77;;;;;;;3.97;100.00;100686.44;5013237;28;20049;-53
2022/12/10 00:06:47;;;;;;;69.90;25.97;;;;;;;3.70;100.00;100684.78;5013189;28;20035;-54
2022/12/10 00:09:16;;;;;;;78.55;28.15;;;;;;;3.58;100.00;100682.38;4996317;28;20090;-51
2022/12/10 00:11:42;;;;;;;89.28;26.90;;;;;;;3.62;100.00;100676.75;5008964;28;20130;-50
2022/12/10 00:14:08;;;;;;;78.50;24.85;;;;;;;3.43;100.00;100678.59;5011547;28;20035;-50
2022/12/10 00:16:34;;;;;;;;;;;;;;;3.86;100.00;100676.94;5012472;28;20010;-54
2022/12/10 00:19:00;;;;;;;77.72;27.10;;;;;;;3.58;100.00;100677.06;5011774;28;19925;-51
2022/12/10 00:21:29;;;;;;;76.50;26.35;;;;;;;3.71;100.00;100675.84;5015447;28;20034;-53
2022/12/10 00:23:55;;;;;;;82.22;27.55;;;;;;;3.33;100.00;100680.50;5014339;28;20038;-51
2022/12/10 00:26:24;;;;;;;77.20;28.33;;;;;;;3.39;100.00;100685.16;5015227;28;20038;-52
2022/12/10 00:28:50;;;;;;;83.30;28.67;;;;;;;3.50;100.00;100677.03;5014134;28;20034;-48
2022/12/10 00:31:26;;;;;;;74.75;28.35;;;;;;;3.78;100.00;100682.19;4997353;28;20042;-49
2022/12/10 00:33:56;;;;;;;82.85;30.42;;;;;;;3.59;100.00;100681.38;5013410;28;20057;-52
2022/12/10 00:36:25;;;;;;;79.50;28.08;;;;;;;3.54;100.00;100674.88;4998825;28;20042;-51
2022/12/10 00:38:52;;;;;;;89.22;28.63;;;;;;;2.91;100.00;100677.44;5013836;28;20030;-52
2022/12/10 00:41:18;;;;;;;;;;;;;;;3.31;100.00;100675.34;4999136;28;20061;-54
2022/12/10 00:43:43;;;;;;;86.40;32.60;;;;;;;3.22;100.00;100670.97;4998528;28;19917;-50
2022/12/10 00:46:11;;;;;;;100.57;36.22;;;;;;;2.81;100.00;100681.97;5015608;28;20064;-49
2022/12/10 00:48:39;;;;;;;94.88;37.03;;;;;;;3.07;100.00;100678.59;5015932;28;20560;-49
2022/12/10 00:51:10;;;;;;;103.75;39.10;;;;;;;3.07;100.00;100675.97;5015696;28;20046;-50
2022/12/10 00:53:37;;;;;;;106.18;38.88;;;;;;;3.11;100.00;100686.06;5015606;28;20054;-50
2022/12/10 00:56:05;;;;;;;103.63;38.75;;;;;;;3.04;100.00;100677.09;4998541;28;20023;-52
2022/12/10 00:58:34;;;;;;;97.72;36.67;;;;;;;2.95;100.00;100686.75;5015828;28;20154;-51
2022/12/10 01:01:09;;;;;;;103.35;35.33;;;;;;;3.19;100.00;100682.69;4997325;28;20033;-50
2022/12/10 01:03:36;;;;;;;100.18;36.47;;;;;;;2.99;100.00;100682.00;5015478;28;20065;-48
2022/12/10 01:06:17;;;;;;;101.72;35.65;;;;;;;3.10;100.00;100678.31;5015406;28;20026;-53
2022/12/10 01:08:44;;;;;;;112.22;41.67;;;;;;;3.04;100.00;100673.63;5013129;28;20057;-52
2022/12/10 01:11:11;;;;;;;;;;;;;;;3.38;100.00;100670.28;4994748;28;20035;-51
2022/12/10 01:13:38;;;;;;;110.20;36.58;;;;;;;3.18;100.00;100675.72;4996351;28;19919;-54
2022/12/10 01:16:06;;;;;;;101.10;36.97;;;;;;;2.93;100.00;100666.75;4997253;28;20049;-53
2022/12/10 01:18:33;;;;;;;101.22;39.20;;;;;;;2.88;100.00;100659.25;4997159;28;20041;-53
2022/12/10 01:21:08;;;;;;;93.95;34.60;;;;;;;2.93;100.00;100664.09;4996850;28;20103;-54
2022/12/10 01:23:36;;;;;;;87.90;32.15;;;;;;;3.14;100.00;100675.22;5013719;28;20041;-51
2022/12/10 01:26:07;;;;;;;88.18;29.70;;;;;;;3.34;100.00;100675.03;5009728;28;20045;-53
2022/12/10 01:28:36;;;;;;;86.53;31.45;;;;;;;3.12;100.00;100678.97;5012707;28;20031;-53
2022/12/10 01:31:07;;;;;;;95.38;33.40;;;;;;;3.05;100.00;100680.56;4996046;28;20078;-52
2022/12/10 01:33:35;;;;;;;82.47;29.60;;;;;;;3.39;100.00;100682.53;4997269;28;20033;-51
2022/12/10 01:36:13;;;;;;;87.75;30.27;;;;;;;3.74;100.00;100680.84;4996568;28;20122;-55
2022/12/10 01:38:39;;;;;;;99.93;35.80;;;;;;;3.61;100.00;100681.25;5013831;28;20034;-52
2022/12/10 01:41:06;;;;;;;92.32;37.00;;;;;;;3.30;100.00;100690.41;5015989;28;20039;-50
2022/12/10 01:43:59;;;;;;;93.25;34.70;;;;;;;3.32;100.00;100692.06;5015038;28;20166;-54
2022/12/10 01:46:30;;;;;;;95.43;32.88;;;;;;;3.42;100.00;100698.94;5014302;28;20041;-54
2022/12/10 01:48:58;;;;;;;85.40;30.90;;;;;;;3.60;100.00;100700.72;5013027;28;20058;-52
2022/12/10 01:51:26;;;;;;;76.72;30.20;;;;;;;3.45;100.00;100700.41;5015088;28;20027;-53
2022/12/10 01:53:52;;;;;;;77.88;32.47;;;;;;;3.55;100.00;100703.81;5015295;28;20034;-52
2022/12/10 01:56:19;;;;;;;91.47;31.65;;;;;;;3.40;100.00;100705.34;5016244;28;20049;-52
2022/12/10 01:58:47;;;;;;;84.18;31.92;;;;;;;3.23;100.00;100709.66;4997305;28;20035;-52
2022/12/10 02:01:42;;;;;;;93.68;31.55;;;;;;;3.00;100.00;100710.06;4995932;28;20073;-48
2022/12/10 02:04:29;;;;;;;103.00;32.80;;;;;;;3.18;100.00;100715.38;5011733;28;20071;-53
2022/12/10 02:06:54;;;;;;;89.05;30.77;;;;;;;3.55;100.00;100714.41;5012752;28;20046;-50
2022/12/10 02:09:47;;;;;;;71.32;25.65;;;;;;;3.51;100.00;100710.41;5014590;28;20069;-52
2022/12/10 02:12:23;;;;;;;94.78;33.65;;;;;;;3.28;100.00;100708.22;4997010;28;20042;-54
2022/12/10 02:14:59;;;;;;;92.53;32.25;;;;;;;3.22;100.00;100716.72;5013552;28;20046;-55
2022/12/10 02:17:34;;;;;;;97.00;33.33;;;;;;;3.21;100.00;100716.91;4997280;28;20034;-52
2022/12/10 02:20:12;;;;;;;101.15;35.22;;;;;;;2.87;100.00;100710.44;4994410;28;20031;-53
2022/12/10 02:22:46;;;;;;;97.47;35.08;;;;;;;3.18;100.00;100722.50;4995006;28;20033;-48
2022/12/10 02:25:14;;;;;;;107.85;35.25;;;;;;;3.11;100.00;100709.84;5014353;28;20038;-54
2022/12/10 02:28:06;;;;;;;107.75;35.67;;;;;;;3.46;100.00;100720.63;5014403;28;20580;-53
2022/12/10 02:30:34;;;;;;;102.88;36.65;;;;;;;3.23;100.00;100709.66;4997432;28;20105;-52
2022/12/10 02:33:03;;;;;;;113.97;36.58;;;;;;;3.28;100.00;100718.78;4997161;28;20038;-51
2022/12/10 02:35:32;;;;;;;106.47;36.03;;;;;;;4.10;100.00;100712.47;5014262;28;20037;-54
2022/12/10 02:38:09;;;;;;;108.50;36.15;;;;;;;2.93;100.00;100714.31;5013985;28;20026;-52
2022/12/10 02:40:38;;;;;;;106.82;35.58;;;;;;;3.08;100.00;100714.63;5012308;28;20034;-49
2022/12/10 02:43:11;;;;;;;111.32;36.42;;;;;;;3.11;100.00;100709.84;4996407;28;20037;-54
2022/12/10 02:45:38;;;;;;;120.78;36.58;;;;;;;3.39;100.00;100715.09;4996765;28;20030;-52
2022/12/10 02:48:05;;;;;;;119.85;34.97;;;;;;;3.00;100.00;100724.13;4996985;28;20069;-54
2022/12/10 02:50:40;;;;;;;113.38;36.70;;;;;;;3.64;100.00;100714.47;4995681;28;20034;-51
2022/12/10 02:53:05;;;;;;;117.82;37.30;;;;;;;4.09;100.00;100721.41;4996945;28;20038;-52
2022/12/10 02:55:58;;;;;;;118.32;35.95;;;;;;;3.54;100.00;100720.69;4997053;28;20056;-54
2022/12/10 02:58:38;;;;;;;129.65;35.38;;;;;;;3.30;100.00;100716.84;4982950;28;20030;-52
2022/12/10 03:01:45;;;;;;;123.38;36.33;;;;;;;2.66;100.00;100713.34;5013989;28;20030;-54
2022/12/10 03:04:19;;;;;;;184.98;36.13;;;;;;;3.21;100.00;100717.72;4953984;29;20040;-53
2022/12/10 03:06:52;;;;;;;167.45;35.58;;;;;;;3.43;100.00;100718.25;5003796;28;20046;-53
2022/12/10 03:09:24;;;;;;;131.45;33.58;;;;;;;3.59;100.00;100726.34;5013512;28;20089;-52
2022/12/10 03:11:56;;;;;;;132.30;37.60;;;;;;;3.74;100.00;100717.88;5013699;28;20057;-52
2022/12/10 03:14:28;;;;;;;180.57;39.22;;;;;;;3.55;100.00;100717.06;5012446;28;20030;-52
2022/12/10 03:16:56;;;;;;;173.23;38.40;;;;;;;4.05;100.00;100720.06;5013556;28;20492;-51
2022/12/10 03:19:28;;;;;;;176.05;38.70;;;;;;;3.76;100.00;100712.41;5013595;28;20058;-51
2022/12/10 03:21:56;;;;;;;166.77;40.17;;;;;;;4.05;100.00;100712.13;4997031;28;20098;-54
2022/12/10 03:24:26;;;;;;;157.13;38.75;;;;;;;3.75;100.00;100703.66;5012586;28;20065;-51
2022/12/10 03:26:52;;;;;;;144.27;37.03;;;;;;;3.63;100.00;100716.28;5013338;28;20034;-48
2022/12/10 03:29:24;;;;;;;132.05;38.03;;;;;;;4.42;100.00;100711.03;5013269;28;20050;-51
2022/12/10 03:31:53;;;;;;;157.45;38.83;;;;;;;4.36;100.00;100703.69;5012843;28;20106;-52
2022/12/10 03:34:19;;;;;;;147.35;38.55;;;;;;;4.36;100.00;100711.63;5013484;28;20077;-53
2022/12/10 03:36:45;;;;;;;162.57;40.30;;;;;;;4.42;100.00;100705.72;5013443;28;20050;-52
2022/12/10 03:39:11;;;;;;;129.52;36.05;;;;;;;4.40;100.00;100707.72;5013739;28;20030;-49
2022/12/10 03:41:36;;;;;;;191.05;40.28;;;;;;;4.10;100.00;100711.66;5013706;28;20027;-48
2022/12/10 03:44:02;;;;;;;175.33;40.23;;;;;;;4.31;100.00;100711.28;5013742;28;20049;-47
2022/12/10 03:46:30;;;;;;;206.80;43.50;;;;;;;4.22;100.00;100715.69;5013397;28;20968;-51
2022/12/10 03:48:58;;;;;;;154.15;40.53;;;;;;;4.33;100.00;100711.94;5013478;28;20026;-48
2022/12/10 03:51:24;;;;;;;224.25;43.75;;;;;;;4.39;100.00;100716.63;5013612;28;20054;-49
2022/12/10 03:53:50;;;;;;;198.82;47.30;;;;;;;4.28;100.00;100719.53;5013509;28;20030;-49
2022/12/10 03:56:18;;;;;;;162.93;43.80;;;;;;;4.85;100.00;100713.66;5016144;28;20030;-54
2022/12/10 03:58:44;;;;;;;158.52;39.38;;;;;;;4.22;100.00;100715.69;5017215;28;20038;-46
2022/12/10 04:01:10;;;;;;;123.82;34.90;;;;;;;4.06;100.00;100712.97;5017390;28;20038;-48
2022/12/10 04:03:40;;;;;;;196.43;41.63;;;;;;;3.53;100.00;100713.72;5017104;28;20034;-52
2022/12/10 04:06:08;;;;;;;229.38;43.25;;;;;;;3.65;100.00;100713.47;5016980;28;20832;-52
2022/12/10 04:08:34;;;;;;;186.18;42.38;;;;;;;3.34;100.00;100713.88;5016876;28;20050;-50
2022/12/10 04:11:07;;;;;;;151.33;44.93;;;;;;;3.77;100.00;100711.41;5016842;28;20101;-53
2022/12/10 04:16:29;;;;;;;181.98;40.05;;;;;;;3.74;100.00;100712.56;5016930;28;20034;-48
2022/12/10 04:18:57;;;;;;;202.23;42.00;;;;;;;3.63;100.00;100712.81;5001324;28;20030;-49
2022/12/10 04:26:56;;;;;;;224.77;43.53;;;;;;;3.84;100.00;100715.94;5013844;28;20039;-51
2022/12/10 04:29:23;;;;;;;229.75;47.22;;;;;;;4.27;100.00;100717.88;5015832;28;20042;-57
2022/12/10 04:31:49;;;;;;;204.07;47.60;;;;;;;4.10;100.00;100712.47;5015843;28;20070;-55
2022/12/10 04:34:15;;;;;;;199.45;38.33;;;;;;;3.58;100.00;100713.28;5015841;28;20026;-53
2022/12/10 04:36:40;;;;;;;192.20;45.20;;;;;;;3.64;100.00;100722.41;5015338;28;20041;-48
2022/12/10 04:39:05;;;;;;;222.50;51.67;;;;;;;3.95;100.00;100709.56;4998826;28;20123;-49
2022/12/10 04:41:31;;;;;;;259.37;44.33;;;;;;;4.03;100.00;100708.81;5015770;28;20030;-52
2022/12/10 04:43:56;;;;;;;236.03;50.03;;;;;;;3.75;100.00;100708.09;5016243;28;20038;-52
2022/12/10 04:46:22;;;;;;;212.82;48.75;;;;;;;4.02;100.00;100720.38;5016192;28;20026;-50
2022/12/10 04:48:48;;;;;;;252.90;46.37;;;;;;;4.13;100.00;100722.75;5015878;28;20038;-52
2022/12/10 04:51:13;;;;;;;208.05;42.75;;;;;;;3.95;100.00;100724.63;4998675;28;20030;-51
2022/12/10 04:53:39;;;;;;;243.13;42.03;;;;;;;3.80;100.00;100722.53;5015916;28;20030;-50
2022/12/10 04:56:05;;;;;;;268.40;40.77;;;;;;;3.43;100.00;100731.47;5015881;28;20034;-49
2022/12/10 04:58:32;;;;;;;213.73;39.85;;;;;;;3.45;100.00;100721.56;5015735;28;20031;-51
2022/12/10 05:01:06;;;;;;;155.15;37.08;;;;;;;3.94;100.00;100728.28;5015497;28;20101;-52
2022/12/10 05:03:32;;;;;;;235.30;45.38;;;;;;;3.70;100.00;100729.75;5015383;28;20038;-51
2022/12/10 05:06:07;;;;;;;241.98;47.00;;;;;;;3.37;100.00;100734.72;5015162;28;20037;-53
2022/12/10 05:08:33;;;;;;;199.25;43.42;;;;;;;3.55;100.00;100737.34;5014704;28;20038;-48
2022/12/10 05:11:02;;;;;;;331.77;50.72;;;;;;;3.29;100.00;100733.66;5015946;28;20034;-53
2022/12/10 05:13:28;;;;;;;352.67;52.65;;;;;;;3.51;100.00;100736.84;5014079;28;20031;-50
2022/12/10 05:15:53;;;;;;;216.10;46.03;;;;;;;3.53;100.00;100726.94;5015380;28;20030;-52
2022/12/10 05:18:19;;;;;;;208.00;41.28;;;;;;;3.23;100.00;100742.22;5015652;28;20037;-51
2022/12/10 05:20:45;;;;;;;297.47;46.07;;;;;;;3.27;100.00;100748.84;5015419;28;20049;-53
2022/12/10 05:23:29;;;;;;;289.80;50.13;;;;;;;3.61;100.00;100750.00;5015461;28;20038;-51
2022/12/10 05:26:18;;;;;;;311.15;48.08;;;;;;;3.00;100.00;100753.19;5013211;28;20041;-52
2022/12/10 05:28:55;;;;;;;266.00;43.17;;;;;;;2.58;100.00;100749.19;5014987;28;20030;-51
2022/12/10 05:31:24;;;;;;;332.25;48.88;;;;;;;2.91;100.00;100745.31;5013700;28;20046;-54
2022/12/10 05:33:52;;;;;;;236.10;43.42;;;;;;;2.85;100.00;100746.72;5015182;28;20030;-55
2022/12/10 05:36:20;;;;;;;232.60;44.22;;;;;;;2.47;100.00;100736.19;5014524;28;20030;-51
2022/12/10 05:38:47;;;;;;;241.80;45.40;;;;;;;2.36;100.00;100746.91;5015000;28;20038;-51
2022/12/10 05:41:18;;;;;;;271.33;44.83;;;;;;;2.96;100.00;100749.16;4998080;28;20053;-53
2022/12/10 05:43:44;;;;;;;202.75;43.25;;;;;;;4.13;100.00;100754.50;5014839;28;20039;-54
2022/12/10 05:46:13;;;;;;;252.40;46.65;;;;;;;3.68;100.00;100752.84;5014751;28;20045;-54
2022/12/10 05:48:39;;;;;;;234.13;44.70;;;;;;;3.34;100.00;100756.19;5013344;28;20041;-52
2022/12/10 05:51:06;;;;;;;223.68;40.17;;;;;;;3.47;100.00;100748.72;5014597;28;20093;-54
2022/12/10 05:53:32;;;;;;;234.07;46.00;;;;;;;3.28;100.00;100747.88;5014068;28;20102;-54
2022/12/10 05:56:10;;;;;;;278.30;43.17;;;;;;;3.10;100.00;100747.00;5014500;28;20050;-52
2022/12/10 05:58:36;;;;;;;261.85;43.17;;;;;;;3.46;100.00;100741.78;5013739;28;20042;-53
2022/12/10 06:01:07;;;;;;;268.05;44.22;;;;;;;3.15;100.00;100748.25;5013915;28;20034;-53
2022/12/10 06:03:33;;;;;;;248.40;44.10;;;;;;;3.14;100.00;100749.22;5013735;28;20040;-54
2022/12/10 06:05:58;;;;;;;223.87;39.23;;;;;;;2.88;100.00;100749.06;5014419;28;20053;-55
2022/12/10 06:08:24;;;;;;;263.50;40.63;;;;;;;3.03;100.00;100757.34;5013861;28;20034;-49
2022/12/10 06:10:49;;;;;;;285.20;42.00;;;;;;;3.02;100.00;100750.38;5013255;28;20046;-55
2022/12/10 06:13:15;;;;;;;256.00;41.93;;;;;;;2.80;100.00;100747.16;5014254;28;20282;-47
2022/12/10 06:15:42;;;;;;;214.75;37.88;;;;;;;3.79;100.00;100752.63;5012842;28;20034;-54
2022/12/10 06:18:07;;;;;;;178.90;41.78;;;;;;;4.23;100.00;100753.59;5014068;28;20030;-51
2022/12/10 06:20:33;;;;;;;231.40;43.90;;;;;;;3.66;100.00;100753.00;5012622;28;20111;-53
2022/12/10 06:22:58;;;;;;;244.05;44.20;;;;;;;3.75;100.00;100748.63;5012653;28;20038;-49
2022/12/10 06:25:24;;;;;;;193.27;41.80;;;;;;;3.86;100.00;100743.09;5013970;28;20057;-52
2022/12/10 06:27:49;;;;;;;196.45;44.45;;;;;;;3.92;100.00;100746.94;5013862;28;20094;-48
2022/12/10 06:30:15;;;;;;;264.73;46.73;;;;;;;3.58;100.00;100756.41;5013674;28;20046;-51
2022/12/10 06:32:42;;;;;;;191.80;42.10;;;;;;;3.80;100.00;100756.09;5014221;28;20034;-49
2022/12/10 06:35:08;;;;;;;203.95;38.72;;;;;;;3.28;100.00;100761.09;5012621;28;20038;-49
2022/12/10 06:37:34;;;;;;;;;;;;;;;3.69;100.00;100762.44;5014288;28;20030;-54
2022/12/10 06:39:59;;;;;;;161.40;35.87;;;;;;;3.41;100.00;100760.72;4995213;28;19914;-55
2022/12/10 06:42:25;;;;;;;204.80;39.08;;;;;;;3.30;100.00;100753.84;5013416;28;20661;-48
2022/12/10 06:44:51;;;;;;;246.75;42.42;;;;;;;3.61;100.00;100762.38;5013278;28;20046;-51
2022/12/10 06:47:16;;;;;;;236.27;44.40;;;;;;;3.99;100.00;100757.75;5013467;28;20097;-51
2022/12/10 06:49:42;;;;;;;188.55;42.58;;;;;;;3.71;100.00;100765.78;5013451;28;20034;-49
2022/12/10 06:52:07;;;;;;;200.87;42.37;;;;;;;3.57;100.00;100765.31;5013493;28;20102;-51
2022/12/10 06:54:33;;;;;;;219.03;43.00;;;;;;;3.73;100.00;100769.13;5013332;28;20275;-50
2022/12/10 06:56:59;;;;;;;167.63;41.75;;;;;;;3.71;100.00;100771.91;5013520;28;20034;-51
2022/12/10 06:59:24;;;;;;;192.13;43.10;;;;;;;4.27;100.00;100774.31;5013295;28;20029;-51
2022/12/10 07:01:50;;;;;;;169.02;31.45;;;;;;;4.21;100.00;100776.75;4996305;28;20303;-53
2022/12/10 07:04:16;;;;;;;148.95;34.67;;;;;;;3.65;100.00;100777.81;5013412;28;20034;-51
2022/12/10 07:06:41;;;;;;;223.60;39.20;;;;;;;3.46;100.00;100778.78;5013230;28;20038;-51
2022/12/10 07:09:07;;;;;;;206.77;40.93;;;;;;;3.65;100.00;100779.59;5013156;28;20041;-53
2022/12/10 07:11:32;;;;;;;258.33;45.93;;;;;;;4.10;100.00;100785.78;5013218;28;20122;-53
2022/12/10 07:13:58;;;;;;;348.15;52.40;;;;;;;3.51;100.00;100796.81;5012855;28;20060;-52
2022/12/10 07:16:27;;;;;;;232.65;44.78;;;;;;;3.51;100.00;100797.66;5013245;28;20018;-49
2022/12/10 07:18:54;;;;;;;236.98;43.00;;;;;;;3.70;100.00;100785.28;5012767;28;20091;-51
2022/12/10 07:21:27;;;;;;;204.77;41.97;;;;;;;3.49;100.00;100798.78;5013421;28;20044;-51
2022/12/10 07:23:57;;;;;;;197.70;39.78;;;;;;;3.29;100.00;100799.75;5012325;28;20038;-50
2022/12/10 07:26:25;;;;;;;243.07;46.08;;;;;;;3.27;100.00;100800.88;5011914;28;20041;-54
2022/12/10 07:28:51;;;;;;;305.48;44.38;;;;;;;2.96;100.00;100804.63;5011764;28;20305;-51
2022/12/10 07:31:19;;;;;;;196.45;42.80;;;;;;;3.41;100.00;100804.81;5004851;28;20035;-51
2022/12/10 07:33:44;;;;;;;218.55;43.15;;;;;;;3.50;100.00;100809.22;5003844;28;20039;-51
2022/12/10 07:36:11;;;;;;;195.40;40.63;;;;;;;3.26;100.00;100800.06;5002988;28;20039;-54
2022/12/10 07:38:38;;;;;;;228.40;44.33;;;;;;;3.37;100.00;100811.38;5003075;28;20031;-54
2022/12/10 07:41:05;;;;;;;211.15;39.30;;;;;;;3.59;100.00;100815.44;5003818;28;20062;-51
2022/12/10 07:43:33;;;;;;;221.50;40.17;;;;;;;3.33;100.00;100816.13;5004517;28;20034;-53
2022/12/10 07:46:07;;;;;;;203.48;41.63;;;;;;;3.61;100.00;100828.50;5004854;28;20053;-51
2022/12/10 07:48:33;;;;;;;182.80;40.80;;;;;;;3.81;100.00;100830.03;5002958;28;20037;-53
2022/12/10 07:50:59;;;;;;;191.57;37.83;;;;;;;3.41;100.00;100836.53;5004708;28;20047;-52
2022/12/10 07:53:25;;;;;;;293.83;45.15;;;;;;;3.18;100.00;100826.38;5004324;28;20053;-53
2022/12/10 07:55:50;;;;;;;208.47;43.13;;;;;;;3.45;100.00;100835.25;5004935;28;20045;-52
2022/12/10 07:58:16;;;;;;;231.27;40.40;;;;;;;2.96;100.00;100827.59;5005541;28;20154;-51
2022/12/10 08:00:41;;;;;;;231.80;43.30;;;;;;;3.08;100.00;100833.53;5004088;28;20071;-52
2022/12/10 08:03:06;;;;;;;158.17;35.47;;;;;;;3.41;100.00;100832.09;5004601;28;20053;-52
2022/12/10 08:05:32;;;;;;;158.60;39.65;;;;;;;3.25;100.00;100838.03;5002501;28;20031;-51
2022/12/10 08:07:57;;;;;;;245.27;45.57;;;;;;;3.45;100.00;100829.97;5003147;28;20046;-49
2022/12/10 08:10:23;;;;;;;166.43;30.73;;;;;;;3.28;100.00;100837.75;5004485;28;20037;-48
2022/12/10 08:12:49;;;;;;;177.95;33.53;;;;;;;3.28;100.00;100837.75;5003925;28;20034;-51
2022/12/10 08:15:14;;;;;;;209.57;43.53;;;;;;;3.57;100.00;100838.53;5004665;28;20035;-49
2022/12/10 08:17:40;;;;;;;235.40;43.60;;;;;;;3.40;100.00;100838.38;5003440;28;20058;-50
2022/12/10 08:20:07;;;;;;;178.83;33.03;;;;;;;3.31;100.00;100839.25;5005018;28;20030;-52
2022/12/10 08:22:34;;;;;;;216.73;43.28;;;;;;;2.85;100.00;100847.09;5006258;28;20034;-54
2022/12/10 08:24:59;;;;;;;223.82;39.50;;;;;;;3.39;100.00;100847.28;5004292;28;20030;-53
2022/12/10 08:27:25;;;;;;;238.88;41.50;;;;;;;3.29;100.00;100852.63;5005143;28;20030;-53
2022/12/10 08:29:50;;;;;;;147.52;33.20;;;;;;;3.35;100.00;100847.72;5001965;28;20097;-52
2022/12/10 08:32:16;;;;;;;241.83;43.00;;;;;;;3.51;100.00;100852.34;5007471;28;20030;-52
2022/12/10 08:34:41;;;;;;;195.65;40.10;;;;;;;3.92;100.00;100851.94;5004292;28;20051;-54
2022/12/10 08:37:06;;;;;;;235.03;45.17;;;;;;;3.76;100.00;100848.16;5003088;28;20038;-52
2022/12/10 08:39:33;;;;;;;223.48;37.70;;;;;;;4.15;100.00;100844.38;5000691;28;20030;-48
2022/12/10 08:41:58;;;;;;;210.15;39.25;;;;;;;3.91;100.00;100860.84;4984598;28;20043;-50
2022/12/10 08:44:24;;;;;;;183.77;43.70;;;;;;;4.09;100.00;100853.75;5004784;28;20038;-50
2022/12/10 08:46:49;;;;;;;194.40;37.73;;;;;;;4.21;100.00;100862.28;5007964;28;20062;-55
2022/12/10 08:49:15;;;;;;;214.80;42.95;;;;;;;4.04;100.00;100871.06;5003946;28;20051;-50
2022/12/10 08:51:40;;;;;;;162.30;32.43;;;;;;;3.30;100.00;100869.31;5004419;28;20058;-52
2022/12/10 08:54:06;;;;;;;184.57;34.33;;;;;;;3.82;100.00;100871.38;5004551;28;20275;-52
2022/12/10 08:56:31;;;;;;;229.67;37.83;;;;;;;3.94;100.00;100873.81;5006131;28;20042;-50
2022/12/10 08:58:57;;;;;;;114.20;27.02;;;;;;;3.50;100.00;100875.34;5004983;28;20077;-48
2022/12/10 09:01:22;;;;;;;177.07;35.23;;;;;;;3.53;100.00;100877.69;5000289;28;20026;-48
2022/12/10 09:03:48;;;;;;;136.33;29.70;;;;;;;3.67;100.00;100878.13;5003366;28;20303;-50
2022/12/10 09:06:16;;;;;;;135.97;31.73;;;;;;;3.38;100.00;100876.50;5002295;28;20037;-49
2022/12/10 09:08:42;;;;;;;154.05;33.22;;;;;;;3.89;100.00;100879.53;5000776;28;20042;-49
2022/12/10 09:11:13;;;;;;;206.68;38.55;;;;;;;3.73;100.00;100883.66;5002727;28;20038;-47
2022/12/10 09:13:40;;;;;;;209.95;35.70;;;;;;;3.73;100.00;100886.31;5002270;28;20521;-52
2022/12/10 09:16:06;;;;;;;152.85;36.58;;;;;;;4.21;100.00;100887.94;5001405;28;20034;-52
2022/12/10 09:18:31;;;;;;;135.35;29.48;;;;;;;4.22;100.00;100894.91;5001790;28;20410;-51
2022/12/10 09:20:58;;;;;;;151.57;32.33;;;;;;;3.69;100.00;100892.91;5004022;28;20031;-52
2022/12/10 09:23:24;;;;;;;133.63;30.73;;;;;;;3.81;100.00;100887.41;5003315;28;20046;-53
2022/12/10 09:25:49;;;;;;;141.02;34.60;;;;;;;4.10;100.00;100891.66;5003882;28;20038;-53
2022/12/10 09:28:15;;;;;;;132.73;30.77;;;;;;;4.28;100.00;100891.63;4987568;28;20043;-49
2022/12/10 09:30:41;;;;;;;190.30;32.75;;;;;;;3.53;100.00;100901.47;5012339;28;20074;-52
2022/12/10 09:33:07;;;;;;;185.85;34.85;;;;;;;3.86;100.00;100901.81;5015289;28;20034;-53
2022/12/10 09:35:33;;;;;;;193.38;38.05;;;;;;;3.43;100.00;100892.75;5014806;28;20026;-52
2022/12/10 09:37:59;;;;;;;199.57;33.33;;;;;;;3.35;100.00;100897.94;5014604;28;20042;-55
2022/12/10 09:40:40;;;;;;;148.63;32.43;;;;;;;3.69;100.00;100895.53;5014537;28;20045;-51
2022/12/10 09:43:26;;;;;;;142.73;27.75;;;;;;;3.15;100.00;100903.31;5012911;28;20031;-49
2022/12/10 09:46:06;;;;;;;132.45;31.90;;;;;;;3.69;100.00;100906.13;5013128;28;20030;-54
2022/12/10 09:48:41;;;;;;;138.00;29.80;;;;;;;3.41;100.00;100908.78;5012959;28;20070;-50
2022/12/10 09:51:36;;;;;;;166.75;32.42;;;;;;;3.69;100.00;100905.28;5014077;28;20129;-53
2022/12/10 09:54:11;;;;;;;205.45;34.47;;;;;;;4.05;100.00;100912.44;5012406;28;20061;-52
2022/12/10 09:56:41;;;;;;;124.80;27.73;;;;;;;4.50;100.00;100905.38;5014058;28;20031;-52
2022/12/10 09:59:38;;;;;;;197.10;33.60;;;;;;;4.18;100.00;100920.00;5012827;28;20030;-55
2022/12/10 10:02:15;;;;;;;158.68;32.38;;;;;;;4.26;100.00;100918.25;5014193;28;20027;-52
2022/12/10 10:04:41;;;;;;;148.95;33.97;;;;;;;3.74;100.00;100908.31;5013525;28;20030;-53
2022/12/10 10:07:10;;;;;;;109.47;24.58;;;;;;;3.70;100.00;100910.44;5014557;28;20102;-52
2022/12/10 10:09:40;;;;;;;121.93;30.77;;;;;;;4.06;100.00;100914.94;5014382;28;20038;-50
2022/12/10 10:12:27;;;;;;;112.30;31.02;;;;;;;3.98;100.00;100915.69;5013972;28;20026;-49
2022/12/10 10:14:53;;;;;;;97.87;25.80;;;;;;;4.06;100.00;100922.88;5011999;28;20041;-52
2022/12/10 10:17:23;;;;;;;118.00;30.10;;;;;;;4.10;100.00;100918.94;5013691;28;20351;-50
2022/12/10 10:19:49;;;;;;;100.40;25.25;;;;;;;4.14;100.00;100928.22;5013890;28;20280;-48
2022/12/10 10:22:15;;;;;;;74.28;20.73;;;;;;;3.88;100.00;100928.97;5013980;28;20493;-47
2022/12/10 10:24:45;;;;;;;133.77;27.15;;;;;;;3.50;100.00;100936.16;5013828;28;20049;-53
2022/12/10 10:27:13;;;;;;;151.57;29.38;;;;;;;3.43;100.00;100933.25;5011960;28;20034;-50
2022/12/10 10:29:39;;;;;;;135.23;27.92;;;;;;;3.39;100.00;100929.25;5013355;28;20045;-49
2022/12/10 10:32:20;;;;;;;120.00;21.77;;;;;;;3.40;100.00;100927.41;5013733;28;20115;-53
2022/12/10 10:34:53;;;;;;;184.68;32.50;;;;;;;3.47;100.00;100925.03;5012072;28;20093;-49
2022/12/10 10:37:21;;;;;;;129.10;26.23;;;;;;;3.51;100.00;100924.59;5013573;28;20037;-47
2022/12/10 10:39:48;;;;;;;111.50;27.92;;;;;;;3.97;100.00;100919.31;5013304;28;20094;-54
2022/12/10 10:42:25;;;;;;;116.50;26.13;;;;;;;3.66;100.00;100922.28;5013416;28;20030;-50
2022/12/10 10:44:51;;;;;;;119.50;27.95;;;;;;;3.49;100.00;100926.56;5011962;28;20038;-51
2022/12/10 10:47:32;;;;;;;77.60;23.27;;;;;;;3.97;100.00;100923.78;5013715;28;20037;-49
2022/12/10 10:49:59;;;;;;;112.05;24.60;;;;;;;3.44;100.00;100923.50;5011201;28;20557;-50
2022/12/10 10:52:34;;;;;;;98.28;23.80;;;;;;;3.25;100.00;100925.28;5013600;28;20053;-52
2022/12/10 10:55:00;;;;;;;140.30;27.10;;;;;;;2.98;100.00;100918.94;4996171;28;20110;-52
2022/12/10 10:57:34;;;;;;;119.47;26.27;;;;;;;3.74;100.00;100937.44;5013309;28;20061;-52
2022/12/10 11:00:06;;;;;;;107.90;24.73;;;;;;;3.46;100.00;100933.94;5010614;28;20041;-51
2022/12/10 11:02:35;;;;;;;119.97;27.75;;;;;;;3.68;100.00;100936.19;5011244;28;20093;-53
2022/12/10 11:05:28;;;;;;;99.78;25.20;;;;;;;3.88;100.00;100939.56;5012702;28;20023;-53
2022/12/10 11:08:01;;;;;;;90.07;25.05;;;;;;;3.53;100.00;100933.22;5011956;28;20034;-53
2022/12/10 11:10:28;;;;;;;93.15;25.90;;;;;;;3.87;100.00;100923.84;5013001;28;20034;-53
2022/12/10 11:13:25;;;;;;;117.72;24.88;;;;;;;3.61;100.00;100929.84;5011477;28;20026;-54
2022/12/10 11:15:57;;;;;;;113.43;27.98;;;;;;;4.21;100.00;100925.00;5005254;28;20054;-52
2022/12/10 11:18:29;;;;;;;99.53;23.58;;;;;;;4.34;100.00;100917.50;5011828;28;20103;-52
2022/12/10 11:20:58;;;;;;;101.53;25.23;;;;;;;4.95;100.00;100916.78;5012169;28;20030;-49
2022/12/10 11:23:28;;;;;;;129.85;26.23;;;;;;;4.98;100.00;100909.34;5009351;28;20030;-53